Neftekamsk, Russia
Current Conditions -  °F | °C
As of 4:30 AM on Thursday 23 Oct 2014 (Local Time) from UWKE Reporting Station
Broken Clouds Broken Clouds  
Wind Chill: -4°   Ceiling: 2300
Heat Index: 12°   Visibility: 6mi
Dew Point:   Wind: 16mph
Humidity: 62%   Direction: 280°W
Pressure: 29.62"   Gusts: 22mph
Location:  56.08°N, 54.27°E
Report Text: UWKE 222330Z 28007G10MPS 9999 BKN023 M11/M17 Q1003 NOSIG RMKQFE735/0981 21090070
Loading
Personal Weather Stations






























Interactive Weather Map
Tropical Storm Tracking
New forecast layout! Learn more

10-Day Weather Forecast

Advertisements
Track Severe Weather on mobile